createdAt,value
2023-05-14T00:00:30.591Z,13.80
2023-05-14T00:02:57.988Z,14.10
2023-05-14T00:05:25.412Z,14.10
2023-05-14T00:07:52.595Z,14.10
2023-05-14T00:10:21.903Z,13.90
2023-05-14T00:12:50.629Z,14.20
2023-05-14T00:15:17.878Z,13.70
2023-05-14T00:17:45.133Z,14.10
2023-05-14T00:20:12.713Z,14.00
2023-05-14T00:22:40.382Z,13.70
2023-05-14T00:25:08.290Z,13.80
2023-05-14T00:27:37.577Z,13.90
2023-05-14T00:30:06.914Z,13.70
2023-05-14T00:32:34.426Z,13.80
2023-05-14T00:35:03.144Z,14.00
2023-05-14T00:37:30.366Z,14.00
2023-05-14T00:39:58.332Z,14.30
2023-05-14T00:42:27.086Z,14.30
2023-05-14T00:44:54.328Z,14.30
2023-05-14T00:47:21.546Z,14.40
2023-05-14T00:49:48.770Z,14.00
2023-05-14T00:52:17.266Z,14.10
2023-05-14T00:54:46.162Z,14.20
2023-05-14T00:57:13.345Z,14.30
2023-05-14T00:59:42.460Z,14.20
2023-05-14T01:02:09.703Z,14.40
2023-05-14T01:04:37.820Z,14.20
2023-05-14T01:07:33.401Z,14.60
2023-05-14T01:10:25.472Z,14.30
2023-05-14T01:13:16.180Z,14.40
2023-05-14T01:15:43.683Z,14.40
2023-05-14T01:18:13.446Z,14.60
2023-05-14T01:20:40.763Z,14.60
2023-05-14T01:23:07.937Z,14.90
2023-05-14T01:25:35.542Z,14.90
2023-05-14T01:28:19.540Z,14.60
2023-05-14T01:30:58.028Z,14.10
2023-05-14T01:33:27.652Z,14.20
2023-05-14T01:35:55.585Z,14.20
2023-05-14T01:38:23.927Z,14.00
2023-05-14T01:40:51.299Z,13.90
2023-05-14T01:43:19.569Z,14.20
2023-05-14T01:45:47.080Z,14.40
2023-05-14T01:48:14.631Z,14.30
2023-05-14T01:50:41.901Z,14.20
2023-05-14T01:53:09.101Z,14.30
2023-05-14T01:55:36.398Z,14.20
2023-05-14T01:58:03.639Z,14.10
2023-05-14T02:00:30.812Z,14.10
2023-05-14T02:02:58.087Z,14.30
2023-05-14T02:05:25.307Z,14.30
2023-05-14T02:07:52.527Z,14.30
2023-05-14T02:10:19.814Z,14.10
2023-05-14T02:12:47.008Z,14.10
2023-05-14T02:15:14.372Z,14.10
2023-05-14T02:17:41.586Z,14.00
2023-05-14T02:20:10.267Z,13.70
2023-05-14T02:22:37.861Z,13.90
2023-05-14T02:25:05.470Z,13.80
2023-05-14T02:27:32.648Z,13.90
2023-05-14T02:30:00.849Z,13.70
2023-05-14T02:32:28.684Z,13.90
2023-05-14T02:34:55.969Z,13.50
2023-05-14T02:37:23.166Z,13.40
2023-05-14T02:39:50.360Z,13.50
2023-05-14T02:42:17.529Z,13.40
2023-05-14T02:44:44.760Z,13.10
2023-05-14T02:47:12.087Z,13.30
2023-05-14T02:49:40.302Z,13.30
2023-05-14T02:52:07.638Z,13.70
2023-05-14T02:54:34.874Z,13.70
2023-05-14T02:57:02.097Z,13.70
2023-05-14T02:59:29.650Z,13.70
2023-05-14T03:01:57.873Z,13.50
2023-05-14T03:04:25.389Z,13.30
2023-05-14T03:06:52.589Z,13.40
2023-05-14T03:09:20.095Z,13.40
2023-05-14T03:11:47.260Z,13.40
2023-05-14T03:14:14.460Z,13.70
2023-05-14T03:16:42.212Z,13.90
2023-05-14T03:19:10.000Z,14.20
2023-05-14T03:21:37.403Z,14.30
2023-05-14T03:24:04.737Z,14.40
2023-05-14T03:26:31.946Z,14.60
2023-05-14T03:28:59.115Z,14.30
2023-05-14T03:31:26.687Z,14.40
2023-05-14T03:33:53.989Z,14.60
2023-05-14T03:36:21.158Z,14.60
2023-05-14T03:38:48.403Z,14.50
2023-05-14T03:41:15.572Z,14.80
2023-05-14T03:43:42.749Z,14.90
2023-05-14T03:46:09.921Z,14.90
2023-05-14T03:48:37.139Z,14.70
2023-05-14T03:51:04.368Z,14.80
2023-05-14T03:53:31.556Z,14.90
2023-05-14T03:55:58.723Z,14.90
2023-05-14T03:58:25.856Z,15.10
2023-05-14T04:00:53.091Z,14.90
2023-05-14T04:03:20.319Z,15.00
2023-05-14T04:05:47.519Z,14.90
2023-05-14T04:08:14.733Z,15.00
2023-05-14T04:10:42.717Z,14.80
2023-05-14T04:13:09.900Z,15.00
2023-05-14T04:15:39.205Z,14.70
2023-05-14T04:18:06.416Z,14.50
2023-05-14T04:20:33.659Z,14.70
2023-05-14T04:23:00.868Z,14.60
2023-05-14T04:25:28.103Z,14.60
2023-05-14T04:27:55.249Z,14.40
2023-05-14T04:30:22.558Z,14.30
2023-05-14T04:32:50.154Z,14.30
2023-05-14T04:35:17.386Z,14.30
2023-05-14T04:37:44.530Z,14.10
2023-05-14T04:40:12.529Z,14.20
2023-05-14T04:42:39.957Z,14.20
2023-05-14T04:45:08.796Z,14.10
2023-05-14T04:47:36.252Z,14.00
2023-05-14T04:50:04.145Z,14.20
2023-05-14T04:52:31.343Z,14.40
2023-05-14T04:54:58.485Z,14.40
2023-05-14T04:57:25.683Z,14.60
2023-05-14T04:59:52.873Z,14.80
2023-05-14T05:02:20.105Z,14.80
2023-05-14T05:04:47.287Z,14.60
2023-05-14T05:07:14.631Z,14.60
2023-05-14T05:09:42.590Z,14.70
2023-05-14T05:12:09.995Z,14.90
2023-05-14T05:14:37.179Z,14.80
2023-05-14T05:17:04.533Z,14.90
2023-05-14T05:19:42.435Z,14.90
2023-05-14T05:22:10.687Z,15.00
2023-05-14T05:24:37.904Z,15.10
2023-05-14T05:27:06.058Z,15.20
2023-05-14T05:29:33.312Z,15.30
2023-05-14T05:32:00.549Z,15.20
2023-05-14T05:34:28.051Z,15.30
2023-05-14T05:36:55.267Z,15.20
2023-05-14T05:39:22.442Z,15.30
2023-05-14T05:41:49.614Z,15.30
2023-05-14T05:44:16.769Z,15.40
2023-05-14T05:46:44.114Z,15.60
2023-05-14T05:49:11.299Z,15.60
2023-05-14T05:51:38.547Z,15.50
2023-05-14T05:54:05.763Z,16.00
2023-05-14T05:56:32.959Z,15.80
2023-05-14T05:59:00.500Z,15.90
2023-05-14T06:01:27.963Z,16.10
2023-05-14T06:03:55.114Z,15.70
2023-05-14T06:06:22.307Z,15.80
2023-05-14T06:08:49.555Z,15.90
2023-05-14T06:11:17.076Z,16.00
2023-05-14T06:13:44.285Z,16.10
2023-05-14T06:16:11.548Z,15.90
2023-05-14T06:18:38.776Z,16.10
2023-05-14T06:21:06.031Z,16.30
2023-05-14T06:23:33.194Z,16.10
2023-05-14T06:26:00.538Z,16.40
2023-05-14T06:28:27.979Z,16.20
2023-05-14T06:30:55.833Z,16.50
2023-05-14T06:33:29.727Z,16.40
2023-05-14T06:36:01.017Z,16.30
2023-05-14T06:38:28.279Z,16.40
2023-05-14T06:40:55.486Z,16.20
2023-05-14T06:43:22.717Z,16.50
2023-05-14T06:45:50.912Z,16.80
2023-05-14T06:48:21.354Z,16.90
2023-05-14T06:50:49.481Z,16.80
2023-05-14T06:53:16.860Z,16.90
2023-05-14T06:55:44.093Z,16.80
2023-05-14T06:58:11.381Z,16.70
2023-05-14T07:00:38.527Z,16.90
2023-05-14T07:03:05.938Z,16.30
2023-05-14T07:05:33.209Z,16.60
2023-05-14T07:08:00.484Z,16.90
2023-05-14T07:10:27.794Z,16.50
2023-05-14T07:12:55.061Z,16.60
2023-05-14T07:15:22.275Z,16.60
2023-05-14T07:17:49.691Z,16.50
2023-05-14T07:20:16.887Z,16.60
2023-05-14T07:22:44.090Z,16.80
2023-05-14T07:25:11.280Z,16.60
2023-05-14T07:27:38.570Z,16.60
2023-05-14T07:30:06.615Z,16.80
2023-05-14T07:32:33.850Z,16.30
2023-05-14T07:35:01.168Z,16.10
2023-05-14T07:37:28.466Z,16.40
2023-05-14T07:39:56.075Z,16.50
2023-05-14T07:42:35.399Z,16.30
2023-05-14T07:45:04.632Z,16.50
2023-05-14T07:47:32.082Z,16.60
2023-05-14T07:49:59.837Z,16.70
2023-05-14T07:52:27.072Z,17.00
2023-05-14T07:54:54.962Z,17.20
2023-05-14T07:57:22.143Z,17.40
2023-05-14T07:59:49.538Z,17.90
2023-05-14T08:02:17.574Z,18.20
2023-05-14T08:04:45.161Z,17.60
2023-05-14T08:07:12.651Z,18.50
2023-05-14T08:09:39.882Z,18.60
2023-05-14T08:12:07.606Z,18.80
2023-05-14T08:14:34.963Z,17.90
2023-05-14T08:17:02.349Z,18.40
2023-05-14T08:19:29.614Z,18.10
2023-05-14T08:21:57.278Z,17.60
2023-05-14T08:24:24.503Z,17.90
2023-05-14T08:26:52.366Z,17.90
2023-05-14T08:29:19.568Z,18.20
2023-05-14T08:31:46.774Z,18.20
2023-05-14T08:34:13.964Z,18.60
2023-05-14T08:36:41.242Z,18.50
2023-05-14T08:39:08.594Z,18.20
2023-05-14T08:41:37.417Z,17.80
2023-05-14T08:44:15.508Z,17.80
2023-05-14T08:46:42.875Z,18.20
2023-05-14T08:49:20.853Z,18.20
2023-05-14T08:51:48.570Z,18.10
2023-05-14T08:54:18.890Z,18.20
2023-05-14T08:56:46.592Z,18.30
2023-05-14T08:59:14.102Z,18.80
2023-05-14T09:01:47.796Z,18.70
2023-05-14T09:04:22.133Z,18.70
2023-05-14T09:06:53.593Z,19.00
2023-05-14T09:09:23.966Z,19.40
2023-05-14T09:11:52.870Z,19.20
2023-05-14T09:14:20.314Z,19.50
2023-05-14T09:16:49.869Z,19.10
2023-05-14T09:19:19.219Z,19.10
2023-05-14T09:21:47.869Z,19.00
2023-05-14T09:24:26.272Z,19.30
2023-05-14T09:26:59.732Z,19.00
2023-05-14T09:29:28.207Z,18.50
2023-05-14T09:31:56.393Z,18.30
2023-05-14T09:34:32.236Z,18.50
2023-05-14T09:37:03.254Z,19.10
2023-05-14T09:39:31.151Z,18.40
2023-05-14T09:41:58.386Z,18.90
2023-05-14T09:44:26.183Z,18.70
2023-05-14T09:46:54.152Z,18.60
2023-05-14T09:49:21.617Z,18.80
2023-05-14T09:51:52.144Z,18.70
2023-05-14T09:54:19.447Z,18.70
2023-05-14T09:56:46.695Z,19.00
2023-05-14T09:59:13.979Z,19.10
2023-05-14T10:01:44.152Z,19.10
2023-05-14T10:04:11.920Z,18.80
2023-05-14T10:06:39.659Z,19.00
2023-05-14T10:09:14.956Z,19.30
2023-05-14T10:11:45.328Z,19.40
2023-05-14T10:14:21.639Z,19.10
2023-05-14T10:16:50.977Z,19.50
2023-05-14T10:19:20.792Z,18.90
2023-05-14T10:22:00.840Z,19.00
2023-05-14T10:24:28.152Z,19.60
2023-05-14T10:26:55.818Z,19.70
2023-05-14T10:29:33.825Z,19.90
2023-05-14T10:32:06.260Z,18.80
2023-05-14T10:34:42.448Z,18.70
2023-05-14T10:37:11.806Z,18.40
2023-05-14T10:39:45.943Z,18.30
2023-05-14T10:42:16.397Z,18.50
2023-05-14T10:44:58.788Z,18.00
2023-05-14T10:47:30.103Z,18.00
2023-05-14T10:50:01.447Z,18.10
2023-05-14T10:52:28.617Z,18.20
2023-05-14T10:54:59.624Z,18.20
2023-05-14T10:57:31.569Z,18.50
2023-05-14T11:00:00.262Z,18.10
2023-05-14T11:02:28.436Z,18.10
2023-05-14T11:04:59.430Z,18.00
2023-05-14T11:07:37.851Z,18.20
2023-05-14T11:10:06.540Z,18.60
2023-05-14T11:12:35.361Z,18.60
2023-05-14T11:15:05.065Z,18.30
2023-05-14T11:17:32.909Z,18.70
2023-05-14T11:20:00.730Z,18.40
2023-05-14T11:22:28.231Z,18.50
2023-05-14T11:24:55.486Z,18.70
2023-05-14T11:27:23.992Z,19.10
2023-05-14T11:29:51.694Z,19.20
2023-05-14T11:32:19.678Z,20.30
2023-05-14T11:34:46.995Z,20.30
2023-05-14T11:37:15.933Z,20.30
2023-05-14T11:39:54.191Z,19.70
2023-05-14T11:42:22.356Z,19.60
2023-05-14T11:44:51.612Z,19.50
2023-05-14T11:47:21.011Z,19.00
2023-05-14T11:49:48.678Z,19.30
2023-05-14T11:52:19.311Z,19.30
2023-05-14T11:54:47.420Z,19.50
2023-05-14T11:57:19.634Z,19.20
2023-05-14T11:59:47.380Z,18.90
2023-05-14T12:02:16.152Z,19.30
2023-05-14T12:04:44.619Z,19.20
2023-05-14T12:07:16.762Z,19.70
2023-05-14T12:09:50.112Z,19.90
2023-05-14T12:12:23.855Z,19.30
2023-05-14T12:14:52.755Z,19.10
2023-05-14T12:17:21.736Z,18.80
2023-05-14T12:19:52.976Z,18.60
2023-05-14T12:22:23.183Z,18.20
2023-05-14T12:24:58.038Z,18.10
2023-05-14T12:27:26.734Z,18.10
2023-05-14T12:30:19.171Z,18.60
2023-05-14T12:32:51.493Z,18.70
2023-05-14T12:35:19.140Z,18.80
2023-05-14T12:37:46.396Z,19.50
2023-05-14T12:40:13.811Z,20.10
2023-05-14T12:42:41.070Z,21.10
2023-05-14T12:45:08.861Z,21.90
2023-05-14T12:47:37.204Z,21.80
2023-05-14T12:50:05.191Z,20.90
2023-05-14T12:52:38.306Z,20.90
2023-05-14T12:55:08.935Z,19.20
2023-05-14T12:57:36.799Z,19.00
2023-05-14T13:00:07.120Z,18.60
2023-05-14T13:02:42.199Z,19.10
2023-05-14T13:05:11.561Z,18.70
2023-05-14T13:07:39.053Z,18.30
2023-05-14T13:10:07.124Z,18.20
2023-05-14T13:12:34.524Z,18.20
2023-05-14T13:15:02.065Z,18.10
2023-05-14T13:17:29.391Z,18.00
2023-05-14T13:19:56.657Z,17.60
2023-05-14T13:22:23.858Z,17.50
2023-05-14T13:24:51.057Z,17.00
2023-05-14T13:27:18.624Z,17.00
2023-05-14T13:29:45.838Z,17.30
2023-05-14T13:32:13.098Z,17.40
2023-05-14T13:34:40.722Z,17.40
2023-05-14T13:37:08.030Z,17.30
2023-05-14T13:39:35.349Z,17.80
2023-05-14T13:42:02.604Z,17.80
2023-05-14T13:44:30.330Z,17.50
2023-05-14T13:46:57.690Z,17.40
2023-05-14T13:49:24.991Z,17.50
2023-05-14T13:51:52.311Z,17.50
2023-05-14T13:54:19.564Z,17.70
2023-05-14T13:56:46.752Z,17.80
2023-05-14T13:59:14.723Z,18.00
2023-05-14T14:01:43.377Z,18.30
2023-05-14T14:04:11.700Z,18.90
2023-05-14T14:06:39.146Z,19.30
2023-05-14T14:09:06.483Z,19.70
2023-05-14T14:11:34.028Z,19.70
2023-05-14T14:14:01.486Z,20.40
2023-05-14T14:16:28.836Z,20.50
2023-05-14T14:18:57.299Z,20.70
2023-05-14T14:21:24.937Z,21.00
2023-05-14T14:23:52.232Z,21.40
2023-05-14T14:26:19.534Z,21.20
2023-05-14T14:28:46.861Z,21.10
2023-05-14T14:31:14.229Z,21.00
2023-05-14T14:33:41.807Z,20.80
2023-05-14T14:36:09.415Z,20.70
2023-05-14T14:38:36.826Z,20.70
2023-05-14T14:41:04.014Z,21.00
2023-05-14T14:43:31.680Z,20.60
2023-05-14T14:45:58.989Z,21.00
2023-05-14T14:48:26.323Z,21.60
2023-05-14T14:50:54.543Z,21.50
2023-05-14T14:53:22.871Z,21.40
2023-05-14T14:55:50.768Z,22.00
2023-05-14T14:58:19.301Z,22.10
2023-05-14T15:00:47.236Z,22.60
2023-05-14T15:03:15.825Z,22.60
2023-05-14T15:05:43.428Z,22.30
2023-05-14T15:08:11.055Z,22.50
2023-05-14T15:10:38.631Z,22.10
2023-05-14T15:13:06.982Z,21.70
2023-05-14T15:15:35.235Z,21.90
2023-05-14T15:18:03.547Z,22.00
2023-05-14T15:20:31.206Z,22.50
2023-05-14T15:22:58.410Z,22.40
2023-05-14T15:25:27.745Z,22.30
2023-05-14T15:27:55.174Z,21.90
2023-05-14T15:30:22.461Z,21.10
2023-05-14T15:32:50.276Z,21.10
2023-05-14T15:35:17.515Z,21.10
2023-05-14T15:37:45.313Z,20.80
2023-05-14T15:40:12.888Z,20.50
2023-05-14T15:42:42.425Z,20.60
2023-05-14T15:45:10.875Z,20.80
2023-05-14T15:47:38.282Z,20.70
2023-05-14T15:50:06.272Z,20.80
2023-05-14T15:52:33.936Z,20.10
2023-05-14T15:55:01.367Z,19.90
2023-05-14T15:57:28.950Z,19.70
2023-05-14T15:59:56.868Z,19.50
2023-05-14T16:02:24.102Z,19.10
2023-05-14T16:04:51.344Z,19.10
2023-05-14T16:07:18.614Z,18.60
2023-05-14T16:09:45.852Z,18.50
2023-05-14T16:12:13.166Z,18.40
2023-05-14T16:14:42.168Z,18.50
2023-05-14T16:17:09.418Z,18.90
2023-05-14T16:19:38.763Z,19.20
2023-05-14T16:22:06.530Z,19.20
2023-05-14T16:24:36.721Z,19.20
2023-05-14T16:27:04.656Z,19.30
2023-05-14T16:29:31.954Z,19.30
2023-05-14T16:31:59.252Z,19.30
2023-05-14T16:34:26.436Z,19.50
2023-05-14T16:36:53.678Z,19.40
2023-05-14T16:39:21.095Z,19.50
2023-05-14T16:41:48.286Z,19.40
2023-05-14T16:44:15.938Z,19.60
2023-05-14T16:46:43.264Z,19.70
2023-05-14T16:49:10.517Z,19.70
2023-05-14T16:51:42.436Z,19.70
2023-05-14T16:54:09.896Z,19.80
2023-05-14T16:56:37.224Z,19.90
2023-05-14T16:59:04.612Z,19.70
2023-05-14T17:01:32.396Z,19.40
2023-05-14T17:03:59.679Z,19.50
2023-05-14T17:06:26.967Z,19.70
2023-05-14T17:08:54.172Z,20.00
2023-05-14T17:11:21.396Z,19.90
2023-05-14T17:13:48.632Z,19.80
2023-05-14T17:16:16.136Z,19.90
2023-05-14T17:18:43.522Z,19.90
2023-05-14T17:21:10.979Z,19.90
2023-05-14T17:23:38.270Z,20.10
2023-05-14T17:26:05.537Z,19.90
2023-05-14T17:28:33.468Z,19.60
2023-05-14T17:31:01.416Z,19.80
2023-05-14T17:33:28.665Z,19.80
2023-05-14T17:35:55.925Z,19.60
2023-05-14T17:38:23.887Z,19.50
2023-05-14T17:40:51.088Z,19.80
2023-05-14T17:43:18.980Z,19.80
2023-05-14T17:45:53.854Z,19.70
2023-05-14T17:48:22.777Z,19.70
2023-05-14T17:50:51.538Z,19.60
2023-05-14T17:53:18.800Z,19.60
2023-05-14T17:55:46.134Z,19.60
2023-05-14T17:58:15.508Z,19.40
2023-05-14T18:00:43.630Z,19.30
2023-05-14T18:03:11.440Z,19.10
2023-05-14T18:05:38.952Z,19.10
2023-05-14T18:08:06.551Z,19.30
2023-05-14T18:10:33.819Z,19.20
2023-05-14T18:13:01.058Z,19.30
2023-05-14T18:15:28.312Z,19.30
2023-05-14T18:17:55.644Z,19.10
2023-05-14T18:20:22.984Z,19.10
2023-05-14T18:22:51.075Z,19.10
2023-05-14T18:25:18.515Z,18.90
2023-05-14T18:27:45.991Z,18.70
2023-05-14T18:30:14.670Z,18.30
2023-05-14T18:32:43.764Z,18.30
2023-05-14T18:35:12.053Z,18.00
2023-05-14T18:37:39.659Z,17.80
2023-05-14T18:40:07.613Z,17.50
2023-05-14T18:42:35.205Z,17.40
2023-05-14T18:45:03.233Z,17.20
2023-05-14T18:47:30.457Z,17.10
2023-05-14T18:50:00.275Z,16.90
2023-05-14T18:52:27.908Z,16.90
2023-05-14T18:54:55.470Z,17.00
2023-05-14T18:57:22.855Z,16.90
2023-05-14T18:59:50.096Z,17.00
2023-05-14T19:02:17.393Z,16.70
2023-05-14T19:04:52.391Z,16.40
2023-05-14T19:07:21.050Z,16.10
2023-05-14T19:09:48.514Z,16.10
2023-05-14T19:12:16.096Z,16.00
2023-05-14T19:14:43.436Z,16.20
2023-05-14T19:17:10.966Z,16.10
2023-05-14T19:19:39.341Z,16.10
2023-05-14T19:22:06.792Z,16.10
2023-05-14T19:24:34.221Z,15.90
2023-05-14T19:27:01.728Z,15.90
2023-05-14T19:29:29.079Z,15.90
2023-05-14T19:31:56.589Z,15.90
2023-05-14T19:34:24.050Z,15.90
2023-05-14T19:36:51.488Z,16.00
2023-05-14T19:39:18.757Z,15.80
2023-05-14T19:41:46.173Z,15.90
2023-05-14T19:44:13.436Z,15.70
2023-05-14T19:46:41.253Z,15.60
2023-05-14T19:49:08.603Z,15.70
2023-05-14T19:51:35.869Z,15.70
2023-05-14T19:54:03.328Z,15.50
2023-05-14T19:56:30.863Z,15.50
2023-05-14T19:58:58.578Z,15.60
2023-05-14T20:01:26.793Z,15.50
2023-05-14T20:03:54.103Z,15.50
2023-05-14T20:06:21.330Z,15.50
2023-05-14T20:08:48.706Z,15.50
2023-05-14T20:11:17.935Z,15.60
2023-05-14T20:13:45.266Z,15.80
2023-05-14T20:16:13.561Z,15.80
2023-05-14T20:18:41.274Z,16.20
2023-05-14T20:21:09.071Z,15.80
2023-05-14T20:23:36.361Z,15.50
2023-05-14T20:26:04.280Z,15.50
2023-05-14T20:28:31.553Z,15.40
2023-05-14T20:31:00.117Z,15.20
2023-05-14T20:33:29.106Z,15.10
2023-05-14T20:35:56.707Z,15.00
2023-05-14T20:38:25.677Z,15.20
2023-05-14T20:40:52.904Z,15.30
2023-05-14T20:43:20.377Z,15.70
2023-05-14T20:45:47.579Z,15.80
2023-05-14T20:48:16.461Z,15.70
2023-05-14T20:50:44.441Z,15.80
2023-05-14T20:53:11.691Z,16.10
2023-05-14T20:55:39.450Z,16.10
2023-05-14T20:58:06.829Z,16.30
2023-05-14T21:00:34.311Z,16.50
2023-05-14T21:03:01.929Z,16.40
2023-05-14T21:05:29.317Z,16.40
2023-05-14T21:07:56.741Z,16.50
2023-05-14T21:10:24.385Z,16.50
2023-05-14T21:12:52.374Z,16.30
2023-05-14T21:15:19.630Z,16.20
2023-05-14T21:17:46.938Z,16.30
2023-05-14T21:20:15.539Z,15.70
2023-05-14T21:22:42.866Z,15.90
2023-05-14T21:25:11.031Z,16.20
2023-05-14T21:27:38.437Z,15.60
2023-05-14T21:30:06.648Z,15.90
2023-05-14T21:32:33.886Z,15.90
2023-05-14T21:35:01.297Z,16.30
2023-05-14T21:37:28.550Z,16.50
2023-05-14T21:39:55.864Z,16.60
2023-05-14T21:42:23.305Z,16.60
2023-05-14T21:44:50.662Z,16.30
2023-05-14T21:47:18.069Z,16.40
2023-05-14T21:49:45.296Z,15.90
2023-05-14T21:52:12.733Z,15.60
2023-05-14T21:54:40.410Z,14.20
2023-05-14T21:57:07.817Z,14.50
2023-05-14T21:59:36.461Z,15.20
2023-05-14T22:02:07.749Z,15.10
2023-05-14T22:04:35.514Z,15.20
2023-05-14T22:07:03.296Z,15.30
2023-05-14T22:09:30.569Z,15.20
2023-05-14T22:11:58.300Z,15.30
2023-05-14T22:14:27.185Z,14.70
2023-05-14T22:16:54.539Z,14.10
2023-05-14T22:19:22.277Z,14.40
2023-05-14T22:21:49.651Z,14.20
2023-05-14T22:24:16.891Z,14.40
2023-05-14T22:26:44.434Z,14.40
2023-05-14T22:29:11.657Z,14.00
2023-05-14T22:31:38.916Z,14.50
2023-05-14T22:34:06.238Z,14.80
2023-05-14T22:36:33.400Z,14.90
2023-05-14T22:39:00.856Z,14.90
2023-05-14T22:41:28.040Z,14.60
2023-05-14T22:43:55.314Z,13.70
2023-05-14T22:46:22.545Z,13.40
2023-05-14T22:48:49.761Z,14.20
2023-05-14T22:51:17.756Z,14.70
2023-05-14T22:53:45.431Z,14.50
2023-05-14T22:56:12.630Z,14.20
2023-05-14T22:58:39.774Z,14.40
2023-05-14T23:01:06.943Z,14.70
2023-05-14T23:03:34.165Z,14.80
2023-05-14T23:06:01.326Z,14.60
2023-05-14T23:08:28.506Z,14.30
2023-05-14T23:10:55.680Z,13.40
2023-05-14T23:13:22.954Z,13.40
2023-05-14T23:15:50.333Z,13.80
2023-05-14T23:18:17.650Z,14.30
2023-05-14T23:20:44.928Z,14.40
2023-05-14T23:23:12.121Z,14.30
2023-05-14T23:25:39.301Z,14.30
2023-05-14T23:28:06.933Z,14.00
2023-05-14T23:30:34.149Z,14.10
2023-05-14T23:33:01.434Z,14.30
2023-05-14T23:35:28.666Z,14.30
2023-05-14T23:37:55.834Z,14.40
2023-05-14T23:40:23.030Z,14.00
2023-05-14T23:42:50.627Z,14.10
2023-05-14T23:45:17.910Z,13.90
2023-05-14T23:47:45.305Z,13.80
2023-05-14T23:50:12.535Z,13.90
2023-05-14T23:52:39.679Z,14.00
2023-05-14T23:55:07.260Z,14.10
2023-05-14T23:57:34.487Z,14.10
